Weather at Yav'pe Ma'ta Airport

Public forecast

Using degrees Fahrenheit for public forecast. Weather courtesy of forecast.io.

Closest aviation weather report (METAR) to Yav'pe Ma'ta Airport

Closest report is Prescott International Airport - Ernest A. Love Field, 15.5 nm (28.8 km) NE. Retrieved 2021/06/13 09:53 UTC (50 minutes ago):

KPRC 130953Z AUTO 20006KT 10SM CLR 15/M10 A3007 RMK AO2 SLP093 T01501100

Closest aviation forecast (TAF) to Yav'pe Ma'ta Airport

Closest forecast is Prescott International Airport - Ernest A. Love Field, 15.5 nm (28.8 km) NE. Retrieved 2021/06/13 06:30 UTC (4 hours ago):

TAF KPRC 130527Z 1306/1406 19009KT P6SM SKC FM131900 22013G23KT P6SM SKC FM140300 20006KT P6SM SKC